createdAt,value
2019-03-08T00:01:59.911Z,99583.08
2019-03-08T00:04:31.180Z,99601.98
2019-03-08T00:07:02.411Z,99600.21
2019-03-08T00:09:33.750Z,99592.30
2019-03-08T00:12:05.038Z,99602.00
2019-03-08T00:14:36.396Z,99602.00
2019-03-08T00:17:07.681Z,99608.56
2019-03-08T00:19:38.946Z,99606.80
2019-03-08T00:22:10.239Z,99605.03
2019-03-08T00:24:41.581Z,99613.37
2019-03-08T00:27:12.973Z,99597.56
2019-03-08T00:29:44.423Z,99611.15
2019-03-08T00:32:15.943Z,99614.61
2019-03-08T00:34:47.339Z,99615.05
2019-03-08T00:37:19.080Z,99621.17
2019-03-08T00:39:51.961Z,99623.81
2019-03-08T00:42:23.180Z,99633.92
2019-03-08T00:44:54.533Z,99646.77
2019-03-08T00:47:25.760Z,99652.96
2019-03-08T00:49:57.359Z,99681.95
2019-03-08T00:52:28.580Z,99685.42
2019-03-08T00:54:59.857Z,99715.55
2019-03-08T00:57:32.330Z,99692.52
2019-03-08T01:00:05.610Z,99679.57
2019-03-08T01:02:36.977Z,99686.92
2019-03-08T01:05:09.471Z,99661.48
2019-03-08T01:07:40.880Z,99677.27
2019-03-08T01:10:17.205Z,99678.18
2019-03-08T01:12:48.723Z,99676.48
2019-03-08T01:15:20.974Z,99666.81
2019-03-08T01:17:52.315Z,99668.07
2019-03-08T01:20:23.670Z,99668.03
2019-03-08T01:22:57.030Z,99677.67
2019-03-08T01:25:28.388Z,99676.81
2019-03-08T01:28:09.693Z,99675.50
2019-03-08T01:30:42.148Z,99677.66
2019-03-08T01:33:13.584Z,99671.97
2019-03-08T01:35:44.881Z,99679.91
2019-03-08T01:38:16.240Z,99684.28
2019-03-08T01:40:51.132Z,99683.84
2019-03-08T01:43:22.478Z,99687.80
2019-03-08T01:45:53.967Z,99686.46
2019-03-08T01:48:25.313Z,99681.64
2019-03-08T01:50:56.529Z,99682.97
2019-03-08T01:53:28.008Z,99690.95
2019-03-08T01:55:59.222Z,99689.16
2019-03-08T01:58:30.620Z,99700.12
2019-03-08T02:01:01.889Z,99695.75
2019-03-08T02:03:33.325Z,99690.45
2019-03-08T02:06:04.603Z,99695.72
2019-03-08T02:08:35.885Z,99697.92
2019-03-08T02:11:07.240Z,99702.72
2019-03-08T02:13:38.460Z,99699.17
2019-03-08T02:16:09.856Z,99698.72
2019-03-08T02:18:41.064Z,99700.53
2019-03-08T02:21:12.329Z,99705.31
2019-03-08T02:23:43.544Z,99707.52
2019-03-08T02:26:16.573Z,99707.94
2019-03-08T02:28:47.790Z,99725.91
2019-03-08T02:31:19.156Z,99726.39
2019-03-08T02:33:50.439Z,99715.41
2019-03-08T02:36:23.396Z,99716.70
2019-03-08T02:38:54.722Z,99718.84
2019-03-08T02:41:26.050Z,99713.64
2019-03-08T02:43:57.441Z,99714.50
2019-03-08T02:46:28.833Z,99710.10
2019-03-08T02:49:00.173Z,99727.23
2019-03-08T02:51:31.381Z,99727.20
2019-03-08T02:54:02.761Z,99726.81
2019-03-08T02:56:34.126Z,99723.34
2019-03-08T02:59:05.337Z,99729.00
2019-03-08T03:01:37.766Z,99738.17
2019-03-08T03:04:09.077Z,99743.41
2019-03-08T03:06:40.292Z,99736.41
2019-03-08T03:09:11.693Z,99743.03
2019-03-08T03:11:43.294Z,99737.74
2019-03-08T03:14:14.545Z,99739.51
2019-03-08T03:16:45.757Z,99744.32
2019-03-08T03:19:17.089Z,99752.61
2019-03-08T03:21:48.572Z,99749.16
2019-03-08T03:24:19.854Z,99759.22
2019-03-08T03:26:51.049Z,99764.00
2019-03-08T03:29:22.272Z,99754.41
2019-03-08T03:31:53.541Z,99768.45
2019-03-08T03:34:24.939Z,99781.95
2019-03-08T03:36:56.196Z,99777.09
2019-03-08T03:39:27.417Z,99773.20
2019-03-08T03:41:58.685Z,99782.41
2019-03-08T03:44:30.101Z,99790.80
2019-03-08T03:47:01.544Z,99776.34
2019-03-08T03:49:32.759Z,99784.16
2019-03-08T03:52:04.021Z,99791.06
2019-03-08T03:54:35.233Z,99794.13
2019-03-08T03:57:06.780Z,99797.28
2019-03-08T03:59:37.998Z,99796.39
2019-03-08T04:02:09.330Z,99805.62
2019-03-08T04:04:40.614Z,99811.38
2019-03-08T04:07:11.943Z,99818.86
2019-03-08T04:09:43.151Z,99823.23
2019-03-08T04:12:14.473Z,99823.66
2019-03-08T04:14:45.681Z,99814.34
2019-03-08T04:17:16.945Z,99822.98
2019-03-08T04:19:48.159Z,99830.35
2019-03-08T04:22:19.428Z,99838.77
2019-03-08T04:24:50.709Z,99829.60
2019-03-08T04:27:21.980Z,99831.81
2019-03-08T04:29:56.596Z,99829.98
2019-03-08T04:32:26.277Z,99839.52
2019-03-08T04:34:57.833Z,99836.00
2019-03-08T04:37:29.099Z,99834.63
2019-03-08T04:40:00.317Z,99828.03
2019-03-08T04:42:31.652Z,99824.98
2019-03-08T04:45:02.931Z,99826.66
2019-03-08T04:47:34.690Z,99831.00
2019-03-08T04:50:09.712Z,99838.49
2019-03-08T04:52:41.112Z,99851.64
2019-03-08T04:55:18.872Z,99845.58
2019-03-08T04:57:50.519Z,99854.68
2019-03-08T05:00:28.003Z,99848.92
2019-03-08T05:02:59.399Z,99849.77
2019-03-08T05:05:30.610Z,99847.96
2019-03-08T05:08:01.879Z,99860.78
2019-03-08T05:10:33.160Z,99850.76
2019-03-08T05:13:04.483Z,99857.33
2019-03-08T05:15:35.710Z,99857.33
2019-03-08T05:18:07.108Z,99852.09
2019-03-08T05:20:38.322Z,99856.98
2019-03-08T05:23:09.575Z,99857.34
2019-03-08T05:25:40.785Z,99870.44
2019-03-08T05:28:12.043Z,99883.60
2019-03-08T05:30:43.309Z,99873.02
2019-03-08T05:33:14.702Z,99880.84
2019-03-08T05:35:45.914Z,99890.92
2019-03-08T05:38:17.178Z,99889.63
2019-03-08T05:40:48.463Z,99893.48
2019-03-08T05:43:19.801Z,99892.65
2019-03-08T05:45:51.161Z,99892.28
2019-03-08T05:48:22.419Z,99894.46
2019-03-08T05:50:53.632Z,99896.66
2019-03-08T05:53:24.969Z,99903.21
2019-03-08T05:55:56.189Z,99904.09
2019-03-08T05:58:27.875Z,99916.90
2019-03-08T06:00:59.228Z,99917.19
2019-03-08T06:03:30.590Z,99928.12
2019-03-08T06:06:01.786Z,99921.06
2019-03-08T06:08:33.044Z,99930.22
2019-03-08T06:11:05.041Z,99934.64
2019-03-08T06:13:36.285Z,99943.31
2019-03-08T06:16:07.502Z,99956.09
2019-03-08T06:18:38.763Z,99953.14
2019-03-08T06:21:10.047Z,99964.98
2019-03-08T06:23:41.399Z,99966.30
2019-03-08T06:26:12.609Z,99974.17
2019-03-08T06:28:43.948Z,99975.44
2019-03-08T06:31:15.175Z,99972.42
2019-03-08T06:33:46.485Z,99988.25
2019-03-08T06:36:17.693Z,99982.22
2019-03-08T06:38:48.983Z,99988.55
2019-03-08T06:41:20.268Z,99987.78
2019-03-08T06:43:51.533Z,99992.16
2019-03-08T06:46:22.822Z,99983.80
2019-03-08T06:48:54.363Z,100003.09
2019-03-08T06:51:25.582Z,99998.73
2019-03-08T06:53:56.843Z,99993.05
2019-03-08T06:56:28.058Z,100001.98
2019-03-08T06:59:06.449Z,100010.41
2019-03-08T07:01:38.138Z,100015.29
2019-03-08T07:04:09.406Z,100003.88
2019-03-08T07:06:40.629Z,100014.42
2019-03-08T07:09:11.969Z,100019.73
2019-03-08T07:11:43.247Z,100022.84
2019-03-08T07:14:14.608Z,100014.45
2019-03-08T07:16:45.870Z,100033.80
2019-03-08T07:19:17.187Z,100055.83
2019-03-08T07:21:50.067Z,100046.72
2019-03-08T07:24:26.155Z,100049.52
2019-03-08T07:27:15.545Z,100037.32
2019-03-08T07:30:00.488Z,100023.31
2019-03-08T07:32:36.162Z,100026.48
2019-03-08T07:35:08.197Z,100037.46
2019-03-08T07:37:41.139Z,100063.85
2019-03-08T07:40:15.836Z,100056.02
2019-03-08T07:42:49.089Z,100067.97
2019-03-08T07:45:26.025Z,100064.97
2019-03-08T07:47:57.092Z,100078.66
2019-03-08T07:50:30.009Z,100095.89
2019-03-08T07:53:03.213Z,100099.14
2019-03-08T07:55:52.295Z,100095.31
2019-03-08T07:58:36.947Z,100110.67
2019-03-08T08:01:12.626Z,100108.38
2019-03-08T08:03:51.506Z,100114.00
2019-03-08T08:06:36.202Z,100123.22
2019-03-08T08:09:14.806Z,100124.06
2019-03-08T08:11:53.684Z,100120.55
2019-03-08T08:14:26.565Z,100132.42
2019-03-08T08:17:05.194Z,100137.69
2019-03-08T08:19:36.250Z,100129.33
2019-03-08T08:22:07.421Z,100139.45
2019-03-08T08:24:56.351Z,100153.95
2019-03-08T08:27:29.255Z,100151.73
2019-03-08T08:30:14.141Z,100150.91
2019-03-08T08:33:04.611Z,100156.14
2019-03-08T08:35:42.508Z,100148.21
2019-03-08T08:38:18.985Z,100160.03
2019-03-08T08:40:51.954Z,100152.14
2019-03-08T08:43:27.601Z,100154.42
2019-03-08T08:46:09.383Z,100159.85
2019-03-08T08:48:46.507Z,100181.15
2019-03-08T08:51:19.654Z,100185.22
2019-03-08T08:53:56.291Z,100178.31
2019-03-08T08:56:45.326Z,100182.36
2019-03-08T08:59:18.583Z,100180.56
2019-03-08T09:02:07.576Z,100209.18
2019-03-08T09:04:42.166Z,100188.83
2019-03-08T09:07:15.112Z,100213.78
2019-03-08T09:09:59.889Z,100206.27
2019-03-08T09:12:36.655Z,100211.90
2019-03-08T09:15:16.381Z,100220.66
2019-03-08T09:17:52.219Z,100221.95
2019-03-08T09:20:41.318Z,100228.15
2019-03-08T09:23:14.191Z,100236.04
2019-03-08T09:25:53.001Z,100233.42
2019-03-08T09:28:42.028Z,100246.16
2019-03-08T09:31:13.065Z,100243.52
2019-03-08T09:34:01.251Z,100241.77
2019-03-08T09:36:34.173Z,100256.70
2019-03-08T09:39:12.788Z,100250.17
2019-03-08T09:41:45.766Z,100249.76
2019-03-08T09:44:21.312Z,100276.14
2019-03-08T09:46:59.819Z,100266.48
2019-03-08T09:49:32.679Z,100280.08
2019-03-08T09:52:05.604Z,100292.40
2019-03-08T09:54:38.635Z,100298.13
2019-03-08T09:57:11.682Z,100301.64
2019-03-08T09:59:54.529Z,100307.28
2019-03-08T10:02:30.531Z,100314.75
2019-03-08T10:05:04.366Z,100326.45
2019-03-08T10:07:40.313Z,100340.86
2019-03-08T10:10:29.533Z,100346.52
2019-03-08T10:13:14.373Z,100343.80
2019-03-08T10:15:47.241Z,100354.67
2019-03-08T10:18:20.152Z,100352.86
2019-03-08T10:20:53.888Z,100351.48
2019-03-08T10:23:44.013Z,100361.17
2019-03-08T10:26:19.324Z,100366.81
2019-03-08T10:29:08.985Z,100361.86
2019-03-08T10:31:47.705Z,100371.08
2019-03-08T10:34:27.656Z,100372.37
2019-03-08T10:37:13.671Z,100376.28
2019-03-08T10:40:01.661Z,100382.45
2019-03-08T10:42:35.596Z,100382.03
2019-03-08T10:45:17.331Z,100371.06
2019-03-08T10:47:56.463Z,100380.36
2019-03-08T10:50:35.195Z,100378.22
2019-03-08T10:53:15.187Z,100392.73
2019-03-08T10:55:49.241Z,100390.09
2019-03-08T10:58:25.859Z,100399.78
2019-03-08T11:01:11.171Z,100400.26
2019-03-08T11:03:59.241Z,100402.11
2019-03-08T11:06:42.462Z,100417.11
2019-03-08T11:09:36.499Z,100419.34
2019-03-08T11:12:10.531Z,100423.37
2019-03-08T11:14:49.149Z,100433.56
2019-03-08T11:17:30.010Z,100432.78
2019-03-08T11:20:18.848Z,100438.59
2019-03-08T11:23:09.517Z,100428.55
2019-03-08T11:25:52.571Z,100436.08
2019-03-08T11:28:42.700Z,100437.02
2019-03-08T11:31:22.824Z,100440.95
2019-03-08T11:33:58.352Z,100445.73
2019-03-08T11:36:47.414Z,100440.06
2019-03-08T11:39:20.351Z,100446.70
2019-03-08T11:41:53.216Z,100452.22
2019-03-08T11:44:32.717Z,100459.22
2019-03-08T11:47:21.975Z,100460.46
2019-03-08T11:49:55.061Z,100452.28
2019-03-08T11:52:28.547Z,100449.98
2019-03-08T11:55:11.450Z,100448.59
2019-03-08T11:57:57.569Z,100448.67
2019-03-08T12:00:33.551Z,100453.87
2019-03-08T12:03:09.276Z,100458.00
2019-03-08T12:05:43.326Z,100473.84
2019-03-08T12:08:23.112Z,100458.53
2019-03-08T12:11:20.087Z,100462.00
2019-03-08T12:14:09.462Z,100453.52
2019-03-08T12:16:43.244Z,100441.88
2019-03-08T12:19:32.456Z,100436.09
2019-03-08T12:22:21.505Z,100448.73
2019-03-08T12:25:10.952Z,100456.66
2019-03-08T12:27:44.628Z,100445.92
2019-03-08T12:30:20.398Z,100443.55
2019-03-08T12:33:09.068Z,100445.33
2019-03-08T12:35:58.326Z,100447.63
2019-03-08T12:38:34.008Z,100445.44
2019-03-08T12:41:23.518Z,100443.31
2019-03-08T12:44:12.787Z,100446.70
2019-03-08T12:46:45.725Z,100438.13
2019-03-08T12:49:34.758Z,100446.16
2019-03-08T12:52:07.908Z,100453.72
2019-03-08T12:54:59.056Z,100446.91
2019-03-08T12:57:32.952Z,100451.88
2019-03-08T13:00:11.452Z,100442.39
2019-03-08T13:02:57.178Z,100445.78
2019-03-08T13:05:38.849Z,100432.98
2019-03-08T13:08:11.788Z,100439.14
2019-03-08T13:10:43.161Z,100439.05
2019-03-08T13:13:14.394Z,100437.30
2019-03-08T13:15:45.823Z,100443.47
2019-03-08T13:18:17.128Z,100443.03
2019-03-08T13:20:48.693Z,100441.39
2019-03-08T13:23:19.995Z,100448.51
2019-03-08T13:25:51.354Z,100443.83
2019-03-08T13:28:22.661Z,100458.08
2019-03-08T13:30:54.081Z,100457.64
2019-03-08T13:33:25.472Z,100451.42
2019-03-08T13:35:56.819Z,100455.37
2019-03-08T13:38:28.060Z,100465.38
2019-03-08T13:40:59.621Z,100466.33
2019-03-08T13:43:30.832Z,100468.56
2019-03-08T13:46:02.205Z,100473.58
2019-03-08T13:48:34.780Z,100478.39
2019-03-08T13:51:07.225Z,100494.48
2019-03-08T13:53:38.459Z,100506.84
2019-03-08T13:56:09.756Z,100502.61
2019-03-08T13:58:41.063Z,100498.09
2019-03-08T14:01:12.437Z,100510.86
2019-03-08T14:03:43.798Z,100523.97
2019-03-08T14:06:15.107Z,100510.52
2019-03-08T14:08:46.621Z,100503.08
2019-03-08T14:11:17.976Z,100519.86
2019-03-08T14:13:49.284Z,100510.53
2019-03-08T14:16:20.786Z,100507.98
2019-03-08T14:18:52.173Z,100499.20
2019-03-08T14:21:23.633Z,100501.30
2019-03-08T14:23:54.937Z,100491.20
2019-03-08T14:26:26.329Z,100492.77
2019-03-08T14:28:57.707Z,100488.06
2019-03-08T14:31:45.459Z,100488.94
2019-03-08T14:34:17.035Z,100488.94
2019-03-08T14:36:50.143Z,100489.84
2019-03-08T14:39:21.720Z,100494.61
2019-03-08T14:42:03.922Z,100487.95
2019-03-08T14:44:51.677Z,100490.58
2019-03-08T14:47:33.338Z,100486.73
2019-03-08T14:50:08.114Z,100478.36
2019-03-08T14:52:39.471Z,100478.86
2019-03-08T14:55:15.306Z,100481.09
2019-03-08T14:57:48.426Z,100480.67
2019-03-08T15:00:25.229Z,100478.92
2019-03-08T15:02:55.533Z,100480.68
2019-03-08T15:05:26.764Z,100491.70
2019-03-08T15:07:58.113Z,100472.67
2019-03-08T15:10:38.787Z,100484.63
2019-03-08T15:13:02.623Z,100477.59
2019-03-08T15:15:33.859Z,100469.12
2019-03-08T15:18:05.361Z,100483.33
2019-03-08T15:20:37.871Z,100478.91
2019-03-08T15:23:09.479Z,100463.85
2019-03-08T15:25:41.002Z,100472.62
2019-03-08T15:28:12.303Z,100463.41
2019-03-08T15:30:43.612Z,100466.89
2019-03-08T15:33:16.457Z,100463.89
2019-03-08T15:35:48.086Z,100457.64
2019-03-08T15:38:19.453Z,100457.19
2019-03-08T15:40:50.827Z,100451.83
2019-03-08T15:43:22.210Z,100459.84
2019-03-08T15:45:53.541Z,100460.30
2019-03-08T15:48:25.007Z,100462.98
2019-03-08T15:50:56.242Z,100457.22
2019-03-08T15:53:27.840Z,100458.97
2019-03-08T15:55:59.074Z,100464.72
2019-03-08T15:58:30.953Z,100472.68
2019-03-08T16:01:02.258Z,100469.59
2019-03-08T16:03:35.055Z,100466.48
2019-03-08T16:06:07.530Z,100482.41
2019-03-08T16:08:39.751Z,100476.25
2019-03-08T16:11:12.130Z,100472.27
2019-03-08T16:13:43.610Z,100461.21
2019-03-08T16:16:14.908Z,100471.37
2019-03-08T16:18:48.074Z,100470.08
2019-03-08T16:21:19.405Z,100474.03
2019-03-08T16:23:51.763Z,100478.03
2019-03-08T16:26:25.349Z,100474.05
2019-03-08T16:28:56.190Z,100471.83
2019-03-08T16:31:30.442Z,100471.80
2019-03-08T16:34:09.846Z,100469.14
2019-03-08T16:36:42.956Z,100474.44
2019-03-08T16:39:15.820Z,100474.41
2019-03-08T16:42:09.230Z,100470.33
2019-03-08T16:44:42.162Z,100487.02
2019-03-08T16:47:24.021Z,100481.55
2019-03-08T16:49:57.886Z,100489.86
2019-03-08T16:52:42.007Z,100492.48
2019-03-08T16:55:20.749Z,100492.78
2019-03-08T16:57:59.865Z,100501.13
2019-03-08T17:00:34.207Z,100499.73
2019-03-08T17:03:08.383Z,100501.36
2019-03-08T17:05:43.808Z,100500.86
2019-03-08T17:08:30.350Z,100506.02
2019-03-08T17:11:13.123Z,100506.31
2019-03-08T17:13:45.528Z,100511.54
2019-03-08T17:16:21.803Z,100511.89
2019-03-08T17:18:54.894Z,100521.50
2019-03-08T17:21:29.659Z,100511.80
2019-03-08T17:24:02.728Z,100516.64
2019-03-08T17:26:52.257Z,100521.41
2019-03-08T17:29:44.827Z,100517.33
2019-03-08T17:32:23.171Z,100517.33
2019-03-08T17:35:00.276Z,100525.16
2019-03-08T17:37:35.973Z,100524.16
2019-03-08T17:40:13.206Z,100530.67
2019-03-08T17:42:54.985Z,100527.05
2019-03-08T17:45:44.300Z,100531.77
2019-03-08T17:48:18.236Z,100532.97
2019-03-08T17:51:08.741Z,100541.21
2019-03-08T17:53:44.709Z,100547.25
2019-03-08T17:56:34.068Z,100546.70
2019-03-08T17:59:07.075Z,100551.98
2019-03-08T18:01:40.488Z,100552.31
2019-03-08T18:04:16.559Z,100562.83
2019-03-08T18:06:50.708Z,100564.89
2019-03-08T18:09:33.268Z,100567.30
2019-03-08T18:12:06.189Z,100567.20
2019-03-08T18:14:51.227Z,100567.25
2019-03-08T18:17:30.176Z,100568.03
2019-03-08T18:20:06.022Z,100561.91
2019-03-08T18:22:41.668Z,100553.06
2019-03-08T18:25:30.069Z,100566.19
2019-03-08T18:28:03.254Z,100559.05
2019-03-08T18:30:42.131Z,100573.47
2019-03-08T18:33:15.240Z,100569.41
2019-03-08T18:35:48.275Z,100566.25
2019-03-08T18:38:38.829Z,100566.70
2019-03-08T18:41:11.831Z,100572.82
2019-03-08T18:44:01.085Z,100574.11
2019-03-08T18:46:37.127Z,100575.86
2019-03-08T18:49:10.133Z,100574.97
2019-03-08T18:51:47.012Z,100574.89
2019-03-08T18:54:25.715Z,100573.95
2019-03-08T18:57:11.183Z,100575.73
2019-03-08T18:59:46.981Z,100578.83
2019-03-08T19:02:20.875Z,100576.99
2019-03-08T19:04:54.182Z,100572.50
2019-03-08T19:07:43.144Z,100572.84
2019-03-08T19:10:17.515Z,100569.72
2019-03-08T19:12:58.105Z,100574.52
2019-03-08T19:15:29.318Z,100580.59
2019-03-08T19:18:17.182Z,100582.31
2019-03-08T19:20:48.697Z,100582.28
2019-03-08T19:23:21.878Z,100583.08
2019-03-08T19:26:00.755Z,100599.73
2019-03-08T19:28:50.290Z,100588.27
2019-03-08T19:31:26.311Z,100592.22
2019-03-08T19:34:18.531Z,100588.61
2019-03-08T19:37:07.412Z,100601.23
2019-03-08T19:39:55.744Z,100599.03
2019-03-08T19:42:45.218Z,100602.49
2019-03-08T19:45:30.489Z,100597.22
2019-03-08T19:48:12.850Z,100591.45
2019-03-08T19:50:54.820Z,100593.20
2019-03-08T19:53:26.980Z,100592.75
2019-03-08T19:56:00.886Z,100592.69
2019-03-08T19:58:33.948Z,100597.95
2019-03-08T20:01:06.877Z,100598.35
2019-03-08T20:03:50.524Z,100603.16
2019-03-08T20:06:35.262Z,100609.30
2019-03-08T20:09:10.309Z,100603.96
2019-03-08T20:11:59.587Z,100605.30
2019-03-08T20:14:44.835Z,100608.89
2019-03-08T20:17:24.207Z,100602.44
2019-03-08T20:19:57.895Z,100607.39
2019-03-08T20:22:47.434Z,100596.23
2019-03-08T20:25:32.867Z,100585.91
2019-03-08T20:28:06.642Z,100583.42
2019-03-08T20:30:39.752Z,100581.70
2019-03-08T20:33:25.810Z,100578.66
2019-03-08T20:36:01.854Z,100576.91
2019-03-08T20:38:54.352Z,100570.75
2019-03-08T20:41:30.245Z,100569.45
2019-03-08T20:44:07.197Z,100563.34
2019-03-08T20:46:40.218Z,100550.59
2019-03-08T20:49:11.429Z,100560.92
2019-03-08T20:51:42.777Z,100558.69
2019-03-08T20:54:14.008Z,100559.17
2019-03-08T20:56:45.341Z,100557.97
2019-03-08T20:59:16.927Z,100553.09
2019-03-08T21:01:48.444Z,100559.14
2019-03-08T21:04:20.202Z,100551.64
2019-03-08T21:06:51.623Z,100559.14
2019-03-08T21:09:23.191Z,100562.72
2019-03-08T21:11:54.649Z,100558.36
2019-03-08T21:14:25.928Z,100552.14
2019-03-08T21:16:57.272Z,100545.09
2019-03-08T21:19:28.499Z,100540.75
2019-03-08T21:21:59.838Z,100549.63
2019-03-08T21:24:31.124Z,100555.48
2019-03-08T21:27:02.431Z,100550.70
2019-03-08T21:29:33.712Z,100547.11
2019-03-08T21:32:07.439Z,100534.78
2019-03-08T21:34:40.015Z,100544.49
2019-03-08T21:37:11.379Z,100545.86
2019-03-08T21:39:42.762Z,100532.31
2019-03-08T21:42:14.168Z,100538.45
2019-03-08T21:44:45.456Z,100543.25
2019-03-08T21:47:16.722Z,100552.51
2019-03-08T21:49:47.947Z,100546.80
2019-03-08T21:52:19.342Z,100536.67
2019-03-08T21:54:50.873Z,100540.20
2019-03-08T21:57:22.138Z,100536.24
2019-03-08T21:59:53.356Z,100548.23
2019-03-08T22:02:24.692Z,100549.20
2019-03-08T22:04:56.785Z,100558.80
2019-03-08T22:07:28.066Z,100563.52
2019-03-08T22:10:00.946Z,100557.84
2019-03-08T22:12:33.815Z,100561.77
2019-03-08T22:15:07.048Z,100557.81
2019-03-08T22:17:38.383Z,100552.31
2019-03-08T22:20:09.812Z,100553.64
2019-03-08T22:22:41.144Z,100544.30
2019-03-08T22:25:13.919Z,100530.51
2019-03-08T22:27:45.449Z,100526.45
2019-03-08T22:30:21.066Z,100516.77
2019-03-08T22:32:52.335Z,100509.18
2019-03-08T22:35:23.561Z,100505.66
2019-03-08T22:37:55.317Z,100502.56
2019-03-08T22:40:26.597Z,100508.67
2019-03-08T22:42:57.854Z,100507.32
2019-03-08T22:45:30.134Z,100505.98
2019-03-08T22:48:01.409Z,100504.20
2019-03-08T22:50:32.803Z,100504.66
2019-03-08T22:53:05.062Z,100499.00
2019-03-08T22:55:36.417Z,100489.29
2019-03-08T22:58:07.679Z,100499.84
2019-03-08T23:00:59.871Z,100498.95
2019-03-08T23:03:32.824Z,100508.22
2019-03-08T23:06:04.255Z,100499.49
2019-03-08T23:08:36.950Z,100488.05
2019-03-08T23:11:08.240Z,100495.13
2019-03-08T23:13:39.512Z,100487.72
2019-03-08T23:16:10.799Z,100496.02
2019-03-08T23:18:43.913Z,100486.30
2019-03-08T23:21:15.138Z,100489.83
2019-03-08T23:23:46.403Z,100489.70
2019-03-08T23:26:17.699Z,100485.41
2019-03-08T23:28:50.663Z,100479.38
2019-03-08T23:31:26.586Z,100476.39
2019-03-08T23:33:57.877Z,100474.41
2019-03-08T23:36:30.247Z,100478.65
2019-03-08T23:39:01.473Z,100472.34
2019-03-08T23:41:34.413Z,100463.93
2019-03-08T23:44:05.702Z,100467.77
2019-03-08T23:46:36.982Z,100469.97
2019-03-08T23:49:08.268Z,100468.10
2019-03-08T23:51:39.536Z,100468.95
2019-03-08T23:54:11.772Z,100469.39
2019-03-08T23:56:43.336Z,100464.06
2019-03-08T23:59:14.555Z,100472.81
